MST,Max TemperatureF,Mean TemperatureF,Min TemperatureF,Max Dew PointF,MeanDew PointF,Min DewpointF,Max Humidity, Mean Humidity, Min Humidity, Max Sea Level PressureIn, Mean Sea Level PressureIn, Min Sea Level PressureIn, Max VisibilityMiles, Mean VisibilityMiles, Min VisibilityMiles, Max Wind SpeedMPH, Mean Wind SpeedMPH, Max Gust SpeedMPH,PrecipitationIn, CloudCover, Events, WindDirDegrees
2013-11-1,60,44,27,31,26,23,85,56,27,30.28,30.22,30.14,10,10,10,15,2,18,0.00,0,,314
2013-11-2,61,46,30,31,28,24,82,55,28,30.26,30.11,29.88,10,10,10,12,4,13,0.00,0,,131
2013-11-3,63,48,32,31,22,4,75,48,20,29.95,29.78,29.61,10,10,9,33,10,39,0.00,1,,300
2013-11-4,43,35,27,24,11,4,59,39,19,30.03,29.97,29.92,10,10,10,18,6,24,0.00,4,,308
2013-11-5,45,34,22,24,12,6,69,45,20,30.36,30.22,30.05,10,10,10,12,4,16,0.00,1,,292
2013-11-6,51,35,18,15,10,5,54,37,20,30.51,30.46,30.38,10,10,10,9,2,10,0.00,0,,121
2013-11-7,52,41,30,19,17,12,53,40,27,30.53,30.39,30.17,10,10,10,9,3,15,0.00,0,,232
2013-11-8,60,41,22,21,17,12,60,40,19,30.20,30.11,30.01,10,10,10,13,3,15,0.00,0,,317
2013-11-9,63,45,27,23,19,15,53,35,17,30.23,30.17,30.10,10,10,10,9,1,10,0.00,0,,288
2013-11-10,62,45,28,24,20,16,58,40,22,30.33,30.26,30.20,10,10,10,8,2,10,0.00,0,,278
2013-11-11,62,45,28,24,21,16,61,42,22,30.40,30.34,30.27,10,10,10,9,2,12,0.00,0,,302
2013-11-12,62,45,28,24,21,16,58,41,23,30.56,30.45,30.40,10,10,10,12,2,14,0.00,0,,323
2013-11-13,56,42,27,25,22,16,63,46,29,30.40,30.28,30.12,10,10,10,8,2,10,0.00,0,,308
2013-11-14,59,42,25,27,23,17,63,44,25,30.17,30.02,29.78,10,10,10,13,3,15,0.00,0,,339
2013-11-15,60,43,25,31,23,14,62,45,27,29.77,29.66,29.56,10,10,10,26,7,32,0.00,4,,310
2013-11-16,48,37,25,30,26,22,85,64,42,29.73,29.62,29.53,10,10,10,17,5,21,T,4,Rain,290
2013-11-17,59,44,28,30,25,19,72,50,28,30.14,29.99,29.75,10,10,10,12,2,14,T,1,,290
2013-11-18,58,43,27,29,25,21,75,54,33,30.28,30.17,30.08,10,10,10,13,4,14,0.00,0,,134
2013-11-19,50,39,28,28,26,20,72,56,39,30.07,29.96,29.89,10,10,10,13,3,15,0.00,3,,272
2013-11-20,48,37,25,41,31,20,89,71,53,29.96,29.91,29.84,10,10,9,12,1,13,0.05,5,Rain,333
2013-11-21,48,43,37,43,39,24,96,80,64,30.22,29.98,29.86,10,9,2,30,9,37,0.10,8,Rain,74
2013-11-22,39,35,30,32,28,19,100,74,48,30.35,30.27,30.21,10,4,0,17,6,23,0.58,8,Fog-Snow,320
2013-11-23,33,32,30,32,31,29,100,95,89,30.35,30.26,30.16,10,5,0,12,4,13,0.50,8,Fog-Rain-Snow,315
2013-11-24,36,34,31,34,32,31,100,96,92,30.22,30.17,30.10,10,6,0,10,6,12,0.00,8,Fog,328
2013-11-25,35,29,23,32,30,22,100,95,89,30.44,30.28,30.16,10,6,0,13,6,14,0.00,5,Fog,317
2013-11-26,34,27,20,31,25,20,100,91,82,30.56,30.44,30.36,10,4,0,12,3,13,0.00,2,Fog,315
2013-11-27,33,28,23,32,29,23,100,96,92,30.46,30.34,30.22,10,3,0,12,5,13,0.00,6,Fog,333
2013-11-28,35,34,32,32,31,30,100,95,89,30.34,30.29,30.22,10,9,6,9,4,10,0.00,8,,323
2013-11-29,35,34,32,32,31,29,96,89,82,30.47,30.41,30.35,10,9,5,10,7,12,0.00,8,,323
2013-11-30,36,35,33,31,30,29,89,82,75,30.48,30.43,30.38,10,10,10,9,6,11,0.00,8,,297